sensor_id;sensor_type;location;lat;lon;timestamp;temperature;humidity
16980;DHT22;42288;52.182;21.156;2023-06-04T00:01:57;7.40;95.50
16980;DHT22;42288;52.182;21.156;2023-06-04T00:04:25;7.30;95.50
16980;DHT22;42288;52.182;21.156;2023-06-04T00:06:51;7.30;95.50
16980;DHT22;42288;52.182;21.156;2023-06-04T00:09:16;7.30;95.80
16980;DHT22;42288;52.182;21.156;2023-06-04T00:11:42;7.20;96.00
16980;DHT22;42288;52.182;21.156;2023-06-04T00:14:08;7.20;96.40
16980;DHT22;42288;52.182;21.156;2023-06-04T00:16:33;7.30;96.20
16980;DHT22;42288;52.182;21.156;2023-06-04T00:19:01;7.40;96.10
16980;DHT22;42288;52.182;21.156;2023-06-04T00:21:27;7.30;96.30
16980;DHT22;42288;52.182;21.156;2023-06-04T00:23:52;7.30;96.40
16980;DHT22;42288;52.182;21.156;2023-06-04T00:26:18;7.30;96.80
16980;DHT22;42288;52.182;21.156;2023-06-04T00:28:44;7.30;96.70
16980;DHT22;42288;52.182;21.156;2023-06-04T00:31:09;7.30;97.00
16980;DHT22;42288;52.182;21.156;2023-06-04T00:33:36;7.20;96.90
16980;DHT22;42288;52.182;21.156;2023-06-04T00:36:02;7.20;96.60
16980;DHT22;42288;52.182;21.156;2023-06-04T00:38:27;7.10;96.50
16980;DHT22;42288;52.182;21.156;2023-06-04T00:40:53;7.10;97.10
16980;DHT22;42288;52.182;21.156;2023-06-04T00:43:18;7.10;97.60
16980;DHT22;42288;52.182;21.156;2023-06-04T00:45:44;7.10;97.80
16980;DHT22;42288;52.182;21.156;2023-06-04T00:48:10;7.10;97.80
16980;DHT22;42288;52.182;21.156;2023-06-04T00:50:37;7.00;97.90
16980;DHT22;42288;52.182;21.156;2023-06-04T00:53:04;6.90;97.50
16980;DHT22;42288;52.182;21.156;2023-06-04T00:55:30;6.90;97.50
16980;DHT22;42288;52.182;21.156;2023-06-04T00:57:57;6.80;98.10
16980;DHT22;42288;52.182;21.156;2023-06-04T01:00:22;6.80;98.40
16980;DHT22;42288;52.182;21.156;2023-06-04T01:02:49;6.70;98.80
16980;DHT22;42288;52.182;21.156;2023-06-04T01:05:40;6.80;99.00
16980;DHT22;42288;52.182;21.156;2023-06-04T01:08:08;6.80;99.00
16980;DHT22;42288;52.182;21.156;2023-06-04T01:10:35;6.80;99.50
16980;DHT22;42288;52.182;21.156;2023-06-04T01:13:01;6.80;99.10
16980;DHT22;42288;52.182;21.156;2023-06-04T01:15:27;6.90;99.00
16980;DHT22;42288;52.182;21.156;2023-06-04T01:17:58;6.80;99.10
16980;DHT22;42288;52.182;21.156;2023-06-04T01:20:36;6.90;99.10
16980;DHT22;42288;52.182;21.156;2023-06-04T01:23:26;6.70;99.00
16980;DHT22;42288;52.182;21.156;2023-06-04T01:25:59;6.70;99.00
16980;DHT22;42288;52.182;21.156;2023-06-04T01:28:28;6.70;98.90
16980;DHT22;42288;52.182;21.156;2023-06-04T01:30:55;6.70;99.10
16980;DHT22;42288;52.182;21.156;2023-06-04T01:33:22;6.60;99.40
16980;DHT22;42288;52.182;21.156;2023-06-04T01:35:48;6.70;99.60
16980;DHT22;42288;52.182;21.156;2023-06-04T01:38:14;6.70;99.70
16980;DHT22;42288;52.182;21.156;2023-06-04T01:40:39;6.60;99.90
16980;DHT22;42288;52.182;21.156;2023-06-04T01:43:06;6.60;99.70
16980;DHT22;42288;52.182;21.156;2023-06-04T01:45:32;6.70;99.90
16980;DHT22;42288;52.182;21.156;2023-06-04T01:48:00;6.60;99.90
16980;DHT22;42288;52.182;21.156;2023-06-04T01:50:26;6.60;99.90
16980;DHT22;42288;52.182;21.156;2023-06-04T01:52:51;6.60;99.80
16980;DHT22;42288;52.182;21.156;2023-06-04T01:55:17;6.60;99.90
16980;DHT22;42288;52.182;21.156;2023-06-04T01:57:44;6.50;99.90
16980;DHT22;42288;52.182;21.156;2023-06-04T02:00:11;6.50;99.80
16980;DHT22;42288;52.182;21.156;2023-06-04T02:02:38;6.50;99.80
16980;DHT22;42288;52.182;21.156;2023-06-04T02:05:05;6.40;99.90
16980;DHT22;42288;52.182;21.156;2023-06-04T02:07:34;6.50;99.50
16980;DHT22;42288;52.182;21.156;2023-06-04T02:10:00;6.50;99.80
16980;DHT22;42288;52.182;21.156;2023-06-04T02:12:25;6.50;99.90
16980;DHT22;42288;52.182;21.156;2023-06-04T02:14:51;6.40;99.90
16980;DHT22;42288;52.182;21.156;2023-06-04T02:17:16;6.40;99.90
16980;DHT22;42288;52.182;21.156;2023-06-04T02:19:43;6.40;99.90
16980;DHT22;42288;52.182;21.156;2023-06-04T02:22:19;6.40;99.90
16980;DHT22;42288;52.182;21.156;2023-06-04T02:24:45;6.40;99.90
16980;DHT22;42288;52.182;21.156;2023-06-04T02:27:11;6.40;99.90
16980;DHT22;42288;52.182;21.156;2023-06-04T02:29:39;6.40;99.90
16980;DHT22;42288;52.182;21.156;2023-06-04T02:32:05;6.40;99.90
16980;DHT22;42288;52.182;21.156;2023-06-04T02:34:30;6.40;99.90
16980;DHT22;42288;52.182;21.156;2023-06-04T02:36:56;6.40;99.90
16980;DHT22;42288;52.182;21.156;2023-06-04T02:39:23;6.40;99.90
16980;DHT22;42288;52.182;21.156;2023-06-04T02:41:49;6.40;99.90
16980;DHT22;42288;52.182;21.156;2023-06-04T02:44:15;6.40;99.90
16980;DHT22;42288;52.182;21.156;2023-06-04T02:46:40;6.50;99.90
16980;DHT22;42288;52.182;21.156;2023-06-04T02:49:06;6.50;99.90
16980;DHT22;42288;52.182;21.156;2023-06-04T02:51:31;6.60;99.90
16980;DHT22;42288;52.182;21.156;2023-06-04T02:53:58;6.60;99.90
16980;DHT22;42288;52.182;21.156;2023-06-04T02:56:23;6.50;99.90
16980;DHT22;42288;52.182;21.156;2023-06-04T02:58:53;6.60;99.90
16980;DHT22;42288;52.182;21.156;2023-06-04T03:01:23;6.50;99.90
16980;DHT22;42288;52.182;21.156;2023-06-04T03:03:50;6.70;99.90
16980;DHT22;42288;52.182;21.156;2023-06-04T03:06:17;6.60;99.90
16980;DHT22;42288;52.182;21.156;2023-06-04T03:08:43;6.70;99.90
16980;DHT22;42288;52.182;21.156;2023-06-04T03:11:09;6.70;99.90
16980;DHT22;42288;52.182;21.156;2023-06-04T03:13:35;6.70;99.90
16980;DHT22;42288;52.182;21.156;2023-06-04T03:16:01;6.70;99.90
16980;DHT22;42288;52.182;21.156;2023-06-04T03:18:28;6.70;99.90
16980;DHT22;42288;52.182;21.156;2023-06-04T03:20:53;6.80;99.90
16980;DHT22;42288;52.182;21.156;2023-06-04T03:23:20;6.70;99.90
16980;DHT22;42288;52.182;21.156;2023-06-04T03:25:46;6.80;99.90
16980;DHT22;42288;52.182;21.156;2023-06-04T03:28:12;6.90;99.90
16980;DHT22;42288;52.182;21.156;2023-06-04T03:30:37;6.90;99.90
16980;DHT22;42288;52.182;21.156;2023-06-04T03:33:03;7.00;99.90
16980;DHT22;42288;52.182;21.156;2023-06-04T03:35:29;7.20;99.90
16980;DHT22;42288;52.182;21.156;2023-06-04T03:37:54;7.30;99.90
16980;DHT22;42288;52.182;21.156;2023-06-04T03:40:20;7.50;99.90
16980;DHT22;42288;52.182;21.156;2023-06-04T03:42:46;7.70;99.90
16980;DHT22;42288;52.182;21.156;2023-06-04T03:45:11;7.80;99.90
16980;DHT22;42288;52.182;21.156;2023-06-04T03:47:39;7.80;99.90
16980;DHT22;42288;52.182;21.156;2023-06-04T03:50:05;8.00;99.70
16980;DHT22;42288;52.182;21.156;2023-06-04T03:52:31;8.20;99.90
16980;DHT22;42288;52.182;21.156;2023-06-04T03:54:56;8.40;99.90
16980;DHT22;42288;52.182;21.156;2023-06-04T03:57:22;8.50;99.30
16980;DHT22;42288;52.182;21.156;2023-06-04T03:59:48;8.70;98.50
16980;DHT22;42288;52.182;21.156;2023-06-04T04:02:14;8.90;97.20
16980;DHT22;42288;52.182;21.156;2023-06-04T04:04:40;9.20;97.00
16980;DHT22;42288;52.182;21.156;2023-06-04T04:07:06;9.30;96.60
16980;DHT22;42288;52.182;21.156;2023-06-04T04:09:31;9.60;95.60
16980;DHT22;42288;52.182;21.156;2023-06-04T04:11:57;9.80;95.00
16980;DHT22;42288;52.182;21.156;2023-06-04T04:14:23;10.00;93.80
16980;DHT22;42288;52.182;21.156;2023-06-04T04:16:49;10.20;93.30
16980;DHT22;42288;52.182;21.156;2023-06-04T04:19:15;10.30;92.40
16980;DHT22;42288;52.182;21.156;2023-06-04T04:21:40;10.50;92.00
16980;DHT22;42288;52.182;21.156;2023-06-04T04:24:06;10.60;91.80
16980;DHT22;42288;52.182;21.156;2023-06-04T04:26:32;10.80;91.30
16980;DHT22;42288;52.182;21.156;2023-06-04T04:28:58;10.90;91.10
16980;DHT22;42288;52.182;21.156;2023-06-04T04:31:29;11.00;91.00
16980;DHT22;42288;52.182;21.156;2023-06-04T04:33:56;11.10;90.90
16980;DHT22;42288;52.182;21.156;2023-06-04T04:36:21;11.20;90.80
16980;DHT22;42288;52.182;21.156;2023-06-04T04:38:47;11.30;90.90
16980;DHT22;42288;52.182;21.156;2023-06-04T04:41:20;11.50;90.40
16980;DHT22;42288;52.182;21.156;2023-06-04T04:43:48;11.60;90.00
16980;DHT22;42288;52.182;21.156;2023-06-04T04:46:14;11.70;90.60
16980;DHT22;42288;52.182;21.156;2023-06-04T04:48:39;11.80;89.00
16980;DHT22;42288;52.182;21.156;2023-06-04T04:51:07;12.00;88.00
16980;DHT22;42288;52.182;21.156;2023-06-04T04:53:33;12.10;87.80
16980;DHT22;42288;52.182;21.156;2023-06-04T04:55:58;12.30;88.10
16980;DHT22;42288;52.182;21.156;2023-06-04T04:58:24;12.40;87.90
16980;DHT22;42288;52.182;21.156;2023-06-04T05:00:50;12.60;87.60
16980;DHT22;42288;52.182;21.156;2023-06-04T05:03:15;12.70;85.70
16980;DHT22;42288;52.182;21.156;2023-06-04T05:05:41;12.80;85.10
16980;DHT22;42288;52.182;21.156;2023-06-04T05:08:07;12.90;84.20
16980;DHT22;42288;52.182;21.156;2023-06-04T05:10:33;12.90;82.30
16980;DHT22;42288;52.182;21.156;2023-06-04T05:13:01;12.90;82.20
16980;DHT22;42288;52.182;21.156;2023-06-04T05:15:27;13.00;82.80
16980;DHT22;42288;52.182;21.156;2023-06-04T05:17:53;13.10;81.80
16980;DHT22;42288;52.182;21.156;2023-06-04T05:20:19;13.30;82.70
16980;DHT22;42288;52.182;21.156;2023-06-04T05:22:46;13.40;82.20
16980;DHT22;42288;52.182;21.156;2023-06-04T05:25:12;13.50;80.30
16980;DHT22;42288;52.182;21.156;2023-06-04T05:27:39;13.70;80.60
16980;DHT22;42288;52.182;21.156;2023-06-04T05:30:05;13.80;79.10
16980;DHT22;42288;52.182;21.156;2023-06-04T05:32:32;13.90;78.80
16980;DHT22;42288;52.182;21.156;2023-06-04T05:34:58;13.90;77.60
16980;DHT22;42288;52.182;21.156;2023-06-04T05:37:25;14.20;78.40
16980;DHT22;42288;52.182;21.156;2023-06-04T05:39:55;14.40;78.20
16980;DHT22;42288;52.182;21.156;2023-06-04T05:42:21;14.60;77.80
16980;DHT22;42288;52.182;21.156;2023-06-04T05:44:47;14.80;77.40
16980;DHT22;42288;52.182;21.156;2023-06-04T05:47:14;14.90;76.20
16980;DHT22;42288;52.182;21.156;2023-06-04T05:49:40;15.10;75.70
16980;DHT22;42288;52.182;21.156;2023-06-04T05:52:06;15.30;75.40
16980;DHT22;42288;52.182;21.156;2023-06-04T05:54:31;15.40;73.00
16980;DHT22;42288;52.182;21.156;2023-06-04T05:56:58;15.50;72.90
16980;DHT22;42288;52.182;21.156;2023-06-04T05:59:24;15.70;73.00
16980;DHT22;42288;52.182;21.156;2023-06-04T06:01:49;15.80;71.20
16980;DHT22;42288;52.182;21.156;2023-06-04T06:04:15;15.90;69.90
16980;DHT22;42288;52.182;21.156;2023-06-04T06:06:42;16.10;70.30
16980;DHT22;42288;52.182;21.156;2023-06-04T06:09:12;16.10;68.40
16980;DHT22;42288;52.182;21.156;2023-06-04T06:11:38;16.30;69.60
16980;DHT22;42288;52.182;21.156;2023-06-04T06:14:03;16.20;67.30
16980;DHT22;42288;52.182;21.156;2023-06-04T06:16:29;16.30;67.70
16980;DHT22;42288;52.182;21.156;2023-06-04T06:18:55;16.50;66.30
16980;DHT22;42288;52.182;21.156;2023-06-04T06:21:21;16.60;65.80
16980;DHT22;42288;52.182;21.156;2023-06-04T06:23:46;16.80;67.00
16980;DHT22;42288;52.182;21.156;2023-06-04T06:26:12;17.00;68.20
16980;DHT22;42288;52.182;21.156;2023-06-04T06:28:39;17.10;68.10
16980;DHT22;42288;52.182;21.156;2023-06-04T06:31:05;17.20;69.80
16980;DHT22;42288;52.182;21.156;2023-06-04T06:33:31;17.30;68.20
16980;DHT22;42288;52.182;21.156;2023-06-04T06:35:57;17.20;66.00
16980;DHT22;42288;52.182;21.156;2023-06-04T06:38:25;17.30;66.30
16980;DHT22;42288;52.182;21.156;2023-06-04T06:40:52;17.40;65.30
16980;DHT22;42288;52.182;21.156;2023-06-04T06:43:17;17.50;66.30
16980;DHT22;42288;52.182;21.156;2023-06-04T06:45:43;17.70;64.30
16980;DHT22;42288;52.182;21.156;2023-06-04T06:48:08;17.70;63.50
16980;DHT22;42288;52.182;21.156;2023-06-04T06:50:34;17.80;64.20
16980;DHT22;42288;52.182;21.156;2023-06-04T06:53:04;17.90;65.40
16980;DHT22;42288;52.182;21.156;2023-06-04T06:55:30;18.00;63.50
16980;DHT22;42288;52.182;21.156;2023-06-04T06:57:55;18.20;63.80
16980;DHT22;42288;52.182;21.156;2023-06-04T07:00:21;18.30;62.80
16980;DHT22;42288;52.182;21.156;2023-06-04T07:02:46;18.10;63.20
16980;DHT22;42288;52.182;21.156;2023-06-04T07:05:13;18.30;61.10
16980;DHT22;42288;52.182;21.156;2023-06-04T07:07:40;18.50;58.80
16980;DHT22;42288;52.182;21.156;2023-06-04T07:10:06;18.20;56.50
16980;DHT22;42288;52.182;21.156;2023-06-04T07:12:32;18.30;57.20
16980;DHT22;42288;52.182;21.156;2023-06-04T07:14:57;18.40;58.70
16980;DHT22;42288;52.182;21.156;2023-06-04T07:17:23;18.50;56.90
16980;DHT22;42288;52.182;21.156;2023-06-04T07:19:48;18.50;55.60
16980;DHT22;42288;52.182;21.156;2023-06-04T07:22:14;18.60;56.00
16980;DHT22;42288;52.182;21.156;2023-06-04T07:24:42;18.70;55.80
16980;DHT22;42288;52.182;21.156;2023-06-04T07:27:12;18.60;55.50
16980;DHT22;42288;52.182;21.156;2023-06-04T07:29:39;18.80;55.60
16980;DHT22;42288;52.182;21.156;2023-06-04T07:32:05;19.00;56.30
16980;DHT22;42288;52.182;21.156;2023-06-04T07:34:32;19.00;54.40
16980;DHT22;42288;52.182;21.156;2023-06-04T07:36:57;19.10;53.20
16980;DHT22;42288;52.182;21.156;2023-06-04T07:39:23;19.10;53.20
16980;DHT22;42288;52.182;21.156;2023-06-04T07:41:49;19.10;53.70
16980;DHT22;42288;52.182;21.156;2023-06-04T07:44:14;19.00;54.10
16980;DHT22;42288;52.182;21.156;2023-06-04T07:46:40;19.10;53.80
16980;DHT22;42288;52.182;21.156;2023-06-04T07:49:06;19.00;53.30
16980;DHT22;42288;52.182;21.156;2023-06-04T07:51:32;19.20;54.80
16980;DHT22;42288;52.182;21.156;2023-06-04T07:53:57;19.40;53.00
16980;DHT22;42288;52.182;21.156;2023-06-04T07:56:23;19.60;52.40
16980;DHT22;42288;52.182;21.156;2023-06-04T07:58:48;19.70;53.20
16980;DHT22;42288;52.182;21.156;2023-06-04T08:01:14;19.80;51.90
16980;DHT22;42288;52.182;21.156;2023-06-04T08:03:39;19.60;50.60
16980;DHT22;42288;52.182;21.156;2023-06-04T08:06:07;19.60;51.20
16980;DHT22;42288;52.182;21.156;2023-06-04T08:08:32;19.80;53.20
16980;DHT22;42288;52.182;21.156;2023-06-04T08:10:59;19.80;50.50
16980;DHT22;42288;52.182;21.156;2023-06-04T08:13:25;19.90;51.20
16980;DHT22;42288;52.182;21.156;2023-06-04T08:15:51;20.00;51.50
16980;DHT22;42288;52.182;21.156;2023-06-04T08:18:17;20.10;52.00
16980;DHT22;42288;52.182;21.156;2023-06-04T08:20:42;19.90;50.20
16980;DHT22;42288;52.182;21.156;2023-06-04T08:23:08;19.90;51.00
16980;DHT22;42288;52.182;21.156;2023-06-04T08:25:33;19.90;50.20
16980;DHT22;42288;52.182;21.156;2023-06-04T08:27:59;19.90;49.80
16980;DHT22;42288;52.182;21.156;2023-06-04T08:30:25;19.80;51.30
16980;DHT22;42288;52.182;21.156;2023-06-04T08:32:53;20.00;52.00
16980;DHT22;42288;52.182;21.156;2023-06-04T08:35:18;19.80;50.60
16980;DHT22;42288;52.182;21.156;2023-06-04T08:37:44;19.60;51.70
16980;DHT22;42288;52.182;21.156;2023-06-04T08:40:10;19.80;51.90
16980;DHT22;42288;52.182;21.156;2023-06-04T08:42:43;19.90;51.20
16980;DHT22;42288;52.182;21.156;2023-06-04T08:45:11;20.10;50.50
16980;DHT22;42288;52.182;21.156;2023-06-04T08:47:40;20.30;50.90
16980;DHT22;42288;52.182;21.156;2023-06-04T08:50:09;20.20;48.70
16980;DHT22;42288;52.182;21.156;2023-06-04T08:52:35;20.30;50.50
16980;DHT22;42288;52.182;21.156;2023-06-04T08:55:01;20.30;50.30
16980;DHT22;42288;52.182;21.156;2023-06-04T08:57:27;20.30;50.80
16980;DHT22;42288;52.182;21.156;2023-06-04T08:59:55;20.40;50.30
16980;DHT22;42288;52.182;21.156;2023-06-04T09:02:22;20.40;50.30
16980;DHT22;42288;52.182;21.156;2023-06-04T09:04:47;20.50;49.10
16980;DHT22;42288;52.182;21.156;2023-06-04T09:07:13;20.60;49.70
16980;DHT22;42288;52.182;21.156;2023-06-04T09:09:40;20.50;49.20
16980;DHT22;42288;52.182;21.156;2023-06-04T09:12:11;20.50;48.40
16980;DHT22;42288;52.182;21.156;2023-06-04T09:14:40;20.60;50.40
16980;DHT22;42288;52.182;21.156;2023-06-04T09:17:06;20.70;49.30
16980;DHT22;42288;52.182;21.156;2023-06-04T09:19:31;20.70;50.00
16980;DHT22;42288;52.182;21.156;2023-06-04T09:21:59;20.70;49.50
16980;DHT22;42288;52.182;21.156;2023-06-04T09:24:39;20.70;49.80
16980;DHT22;42288;52.182;21.156;2023-06-04T09:27:13;20.80;49.40
16980;DHT22;42288;52.182;21.156;2023-06-04T09:29:40;20.90;49.70
16980;DHT22;42288;52.182;21.156;2023-06-04T09:32:06;20.80;49.30
16980;DHT22;42288;52.182;21.156;2023-06-04T09:34:31;21.00;49.80
16980;DHT22;42288;52.182;21.156;2023-06-04T09:36:58;21.00;48.90
16980;DHT22;42288;52.182;21.156;2023-06-04T09:39:24;20.90;49.00
16980;DHT22;42288;52.182;21.156;2023-06-04T09:42:00;21.00;49.70
16980;DHT22;42288;52.182;21.156;2023-06-04T09:44:26;21.00;49.60
16980;DHT22;42288;52.182;21.156;2023-06-04T09:46:56;20.80;47.40
16980;DHT22;42288;52.182;21.156;2023-06-04T09:49:22;21.00;49.00
16980;DHT22;42288;52.182;21.156;2023-06-04T09:51:48;21.10;50.60
16980;DHT22;42288;52.182;21.156;2023-06-04T09:54:14;21.30;49.90
16980;DHT22;42288;52.182;21.156;2023-06-04T09:56:40;21.30;50.10
16980;DHT22;42288;52.182;21.156;2023-06-04T09:59:08;21.50;48.90
16980;DHT22;42288;52.182;21.156;2023-06-04T10:01:38;21.30;49.50
16980;DHT22;42288;52.182;21.156;2023-06-04T10:04:07;21.40;50.20
16980;DHT22;42288;52.182;21.156;2023-06-04T10:06:35;21.50;48.80
16980;DHT22;42288;52.182;21.156;2023-06-04T10:09:05;21.70;49.90
16980;DHT22;42288;52.182;21.156;2023-06-04T10:11:44;21.80;48.90
16980;DHT22;42288;52.182;21.156;2023-06-04T10:14:27;21.90;48.70
16980;DHT22;42288;52.182;21.156;2023-06-04T10:16:57;22.00;49.30
16980;DHT22;42288;52.182;21.156;2023-06-04T10:19:23;22.10;47.10
16980;DHT22;42288;52.182;21.156;2023-06-04T10:21:49;22.20;48.60
16980;DHT22;42288;52.182;21.156;2023-06-04T10:24:15;22.30;47.50
16980;DHT22;42288;52.182;21.156;2023-06-04T10:26:42;22.50;47.70
16980;DHT22;42288;52.182;21.156;2023-06-04T10:29:08;22.50;49.40
16980;DHT22;42288;52.182;21.156;2023-06-04T10:31:36;22.40;48.30
16980;DHT22;42288;52.182;21.156;2023-06-04T10:34:02;22.50;48.10
16980;DHT22;42288;52.182;21.156;2023-06-04T10:36:28;22.80;46.90
16980;DHT22;42288;52.182;21.156;2023-06-04T10:38:55;23.10;47.00
16980;DHT22;42288;52.182;21.156;2023-06-04T10:41:21;23.80;48.30
16980;DHT22;42288;52.182;21.156;2023-06-04T10:43:59;24.10;47.30
16980;DHT22;42288;52.182;21.156;2023-06-04T10:46:25;24.50;46.30
16980;DHT22;42288;52.182;21.156;2023-06-04T10:48:53;25.30;43.90
16980;DHT22;42288;52.182;21.156;2023-06-04T10:51:32;26.10;42.90
16980;DHT22;42288;52.182;21.156;2023-06-04T10:53:58;26.60;40.60
16980;DHT22;42288;52.182;21.156;2023-06-04T10:56:28;27.20;41.60
16980;DHT22;42288;52.182;21.156;2023-06-04T10:58:55;28.40;40.20
16980;DHT22;42288;52.182;21.156;2023-06-04T11:03:50;29.10;38.40
16980;DHT22;42288;52.182;21.156;2023-06-04T11:06:16;29.70;35.90
16980;DHT22;42288;52.182;21.156;2023-06-04T11:08:42;30.20;34.70
16980;DHT22;42288;52.182;21.156;2023-06-04T11:11:12;30.80;35.70
16980;DHT22;42288;52.182;21.156;2023-06-04T11:13:39;31.20;35.30
16980;DHT22;42288;52.182;21.156;2023-06-04T11:16:23;32.30;34.10
16980;DHT22;42288;52.182;21.156;2023-06-04T11:18:58;32.60;33.10
16980;DHT22;42288;52.182;21.156;2023-06-04T11:21:24;31.90;31.20
16980;DHT22;42288;52.182;21.156;2023-06-04T11:23:57;32.10;31.90
16980;DHT22;42288;52.182;21.156;2023-06-04T11:26:28;32.40;32.50
16980;DHT22;42288;52.182;21.156;2023-06-04T11:28:54;32.20;32.30
16980;DHT22;42288;52.182;21.156;2023-06-04T11:31:20;32.00;32.40
16980;DHT22;42288;52.182;21.156;2023-06-04T11:33:47;32.50;30.30
16980;DHT22;42288;52.182;21.156;2023-06-04T11:36:23;32.50;31.00
16980;DHT22;42288;52.182;21.156;2023-06-04T11:38:58;33.60;30.00
16980;DHT22;42288;52.182;21.156;2023-06-04T11:41:27;33.70;29.00
16980;DHT22;42288;52.182;21.156;2023-06-04T11:43:53;33.90;29.30
16980;DHT22;42288;52.182;21.156;2023-06-04T11:46:20;33.40;28.50
16980;DHT22;42288;52.182;21.156;2023-06-04T11:48:45;33.60;28.70
16980;DHT22;42288;52.182;21.156;2023-06-04T11:51:12;33.80;29.60
16980;DHT22;42288;52.182;21.156;2023-06-04T11:53:37;32.90;30.00
16980;DHT22;42288;52.182;21.156;2023-06-04T11:56:04;32.60;28.70
16980;DHT22;42288;52.182;21.156;2023-06-04T11:58:30;31.60;29.20
16980;DHT22;42288;52.182;21.156;2023-06-04T12:00:56;31.00;30.90
16980;DHT22;42288;52.182;21.156;2023-06-04T12:03:39;30.70;31.40
16980;DHT22;42288;52.182;21.156;2023-06-04T12:06:19;30.00;30.20
16980;DHT22;42288;52.182;21.156;2023-06-04T12:08:48;29.20;31.20
16980;DHT22;42288;52.182;21.156;2023-06-04T12:11:30;28.80;31.70
16980;DHT22;42288;52.182;21.156;2023-06-04T12:14:06;28.60;33.30
16980;DHT22;42288;52.182;21.156;2023-06-04T12:16:35;28.20;32.50
16980;DHT22;42288;52.182;21.156;2023-06-04T12:21:33;27.40;33.70
16980;DHT22;42288;52.182;21.156;2023-06-04T12:24:12;27.10;34.80
16980;DHT22;42288;52.182;21.156;2023-06-04T12:26:40;26.80;34.90
16980;DHT22;42288;52.182;21.156;2023-06-04T12:29:13;26.40;35.60
16980;DHT22;42288;52.182;21.156;2023-06-04T12:31:40;26.20;36.80
16980;DHT22;42288;52.182;21.156;2023-06-04T12:34:06;26.20;36.40
16980;DHT22;42288;52.182;21.156;2023-06-04T12:36:33;26.10;37.70
16980;DHT22;42288;52.182;21.156;2023-06-04T12:39:03;25.80;39.00
16980;DHT22;42288;52.182;21.156;2023-06-04T12:41:29;25.70;36.40
16980;DHT22;42288;52.182;21.156;2023-06-04T12:43:55;25.60;36.30
16980;DHT22;42288;52.182;21.156;2023-06-04T12:46:22;25.30;37.20
16980;DHT22;42288;52.182;21.156;2023-06-04T12:48:49;24.80;37.40
16980;DHT22;42288;52.182;21.156;2023-06-04T12:51:14;24.60;37.10
16980;DHT22;42288;52.182;21.156;2023-06-04T12:53:44;24.60;37.20
16980;DHT22;42288;52.182;21.156;2023-06-04T12:56:10;24.70;38.00
16980;DHT22;42288;52.182;21.156;2023-06-04T12:58:36;24.60;35.70
16980;DHT22;42288;52.182;21.156;2023-06-04T13:01:02;24.50;37.20
16980;DHT22;42288;52.182;21.156;2023-06-04T13:03:30;24.60;36.50
16980;DHT22;42288;52.182;21.156;2023-06-04T13:05:55;24.40;35.50
16980;DHT22;42288;52.182;21.156;2023-06-04T13:08:22;24.10;36.00
16980;DHT22;42288;52.182;21.156;2023-06-04T13:10:48;24.20;37.10
16980;DHT22;42288;52.182;21.156;2023-06-04T13:13:14;24.20;37.90
16980;DHT22;42288;52.182;21.156;2023-06-04T13:15:43;24.30;37.70
16980;DHT22;42288;52.182;21.156;2023-06-04T13:18:10;24.00;36.40
16980;DHT22;42288;52.182;21.156;2023-06-04T13:20:36;24.10;37.40
16980;DHT22;42288;52.182;21.156;2023-06-04T13:23:02;24.20;37.60
16980;DHT22;42288;52.182;21.156;2023-06-04T13:25:28;24.60;37.30
16980;DHT22;42288;52.182;21.156;2023-06-04T13:27:54;24.90;35.80
16980;DHT22;42288;52.182;21.156;2023-06-04T13:30:21;24.90;37.20
16980;DHT22;42288;52.182;21.156;2023-06-04T13:32:47;24.70;37.40
16980;DHT22;42288;52.182;21.156;2023-06-04T13:35:12;24.80;35.90
16980;DHT22;42288;52.182;21.156;2023-06-04T13:37:38;24.80;37.40
16980;DHT22;42288;52.182;21.156;2023-06-04T13:40:04;24.80;36.20
16980;DHT22;42288;52.182;21.156;2023-06-04T13:42:30;24.60;37.00
16980;DHT22;42288;52.182;21.156;2023-06-04T13:44:56;24.40;36.40
16980;DHT22;42288;52.182;21.156;2023-06-04T13:47:21;24.20;36.10
16980;DHT22;42288;52.182;21.156;2023-06-04T13:49:47;24.20;38.20
16980;DHT22;42288;52.182;21.156;2023-06-04T13:52:13;24.40;37.70
16980;DHT22;42288;52.182;21.156;2023-06-04T13:54:38;24.60;38.80
16980;DHT22;42288;52.182;21.156;2023-06-04T13:57:04;24.60;37.60
16980;DHT22;42288;52.182;21.156;2023-06-04T13:59:34;24.70;36.80
16980;DHT22;42288;52.182;21.156;2023-06-04T14:02:00;24.60;36.50
16980;DHT22;42288;52.182;21.156;2023-06-04T14:04:25;24.30;34.90
16980;DHT22;42288;52.182;21.156;2023-06-04T14:06:51;24.40;36.40
16980;DHT22;42288;52.182;21.156;2023-06-04T14:09:16;24.40;37.60
16980;DHT22;42288;52.182;21.156;2023-06-04T14:11:42;24.40;35.80
16980;DHT22;42288;52.182;21.156;2023-06-04T14:14:08;24.30;35.10
16980;DHT22;42288;52.182;21.156;2023-06-04T14:16:33;24.30;37.10
16980;DHT22;42288;52.182;21.156;2023-06-04T14:19:00;24.20;36.80
16980;DHT22;42288;52.182;21.156;2023-06-04T14:21:26;24.20;36.80
16980;DHT22;42288;52.182;21.156;2023-06-04T14:23:53;24.20;37.60
16980;DHT22;42288;52.182;21.156;2023-06-04T14:26:20;24.20;37.20
16980;DHT22;42288;52.182;21.156;2023-06-04T14:28:45;24.40;37.80
16980;DHT22;42288;52.182;21.156;2023-06-04T14:31:11;24.20;37.50
16980;DHT22;42288;52.182;21.156;2023-06-04T14:33:36;24.10;37.00
16980;DHT22;42288;52.182;21.156;2023-06-04T14:36:03;24.00;35.30
16980;DHT22;42288;52.182;21.156;2023-06-04T14:38:29;23.80;38.30
16980;DHT22;42288;52.182;21.156;2023-06-04T14:40:55;23.90;38.20
16980;DHT22;42288;52.182;21.156;2023-06-04T14:43:22;23.70;37.80
16980;DHT22;42288;52.182;21.156;2023-06-04T14:45:47;23.70;37.90
16980;DHT22;42288;52.182;21.156;2023-06-04T14:48:13;23.70;38.50
16980;DHT22;42288;52.182;21.156;2023-06-04T14:50:39;23.60;37.00
16980;DHT22;42288;52.182;21.156;2023-06-04T14:53:05;23.60;38.50
16980;DHT22;42288;52.182;21.156;2023-06-04T14:55:33;23.60;39.70
16980;DHT22;42288;52.182;21.156;2023-06-04T14:57:59;23.40;39.60
16980;DHT22;42288;52.182;21.156;2023-06-04T15:00:25;23.20;38.70
16980;DHT22;42288;52.182;21.156;2023-06-04T15:02:51;23.00;38.70
16980;DHT22;42288;52.182;21.156;2023-06-04T15:05:16;23.10;38.30
16980;DHT22;42288;52.182;21.156;2023-06-04T15:07:42;23.00;38.30
16980;DHT22;42288;52.182;21.156;2023-06-04T15:10:08;22.90;39.60
16980;DHT22;42288;52.182;21.156;2023-06-04T15:12:34;22.80;37.70
16980;DHT22;42288;52.182;21.156;2023-06-04T15:15:04;22.90;39.00
16980;DHT22;42288;52.182;21.156;2023-06-04T15:17:30;22.90;39.10
16980;DHT22;42288;52.182;21.156;2023-06-04T15:19:56;22.80;38.00
16980;DHT22;42288;52.182;21.156;2023-06-04T15:22:22;22.80;38.20
16980;DHT22;42288;52.182;21.156;2023-06-04T15:24:47;22.80;38.10